Time;durP1;ratioP1;P1;durP2;ratioP2;P2;SDS_P1;SDS_P2;PMS_P1;PMS_P2;Temp;Humidity;BMP_temperature;BMP_pressure;BME280_temperature;BME280_humidity;BME280_pressure;Samples;Min_cycle;Max_cycle;Signal;HPM_P1;HPM_P2
2022/06/17 00:02:05;;;;;;;4.53;2.65;;;;;;;17.04;76.95;96833.69;4992844;28;20030;-78
2022/06/17 00:04:31;;;;;;;3.95;2.47;;;;;;;16.90;80.14;96837.16;4990706;28;20507;-79
2022/06/17 00:07:01;;;;;;;4.35;2.60;;;;;;;16.95;79.22;96837.44;4986438;28;20113;-78
2022/06/17 00:09:29;;;;;;;6.88;2.70;;;;;;;16.85;80.69;96834.25;4987221;28;20082;-78
2022/06/17 00:11:56;;;;;;;4.40;2.55;;;;;;;16.73;80.06;96834.69;4992068;28;20488;-78
2022/06/17 00:14:31;;;;;;;4.90;3.00;;;;;;;16.65;78.48;96836.59;4987908;28;20747;-78
2022/06/17 00:16:58;;;;;;;9.70;2.90;;;;;;;16.76;77.01;96827.38;4986676;28;20404;-78
2022/06/17 00:19:24;;;;;;;8.70;3.03;;;;;;;16.76;78.96;96816.75;4991331;28;20034;-78
2022/06/17 00:21:52;;;;;;;5.18;2.60;;;;;;;16.77;77.66;96813.06;4980034;28;20030;-78
2022/06/17 00:24:22;;;;;;;6.50;2.85;;;;;;;16.51;77.67;96814.34;4974051;28;20520;-78
2022/06/17 00:26:48;;;;;;;6.45;2.40;;;;;;;16.58;77.47;96823.22;4985440;28;20030;-78
2022/06/17 00:29:18;;;;;;;4.70;2.70;;;;;;;16.44;79.74;96829.34;4987005;28;20418;-78
2022/06/17 00:31:44;;;;;;;8.00;2.97;;;;;;;16.52;81.50;96831.91;4984861;28;20447;-78
2022/06/17 00:34:10;;;;;;;5.43;3.20;;;;;;;16.40;85.63;96828.06;4980455;28;20130;-78
2022/06/17 00:36:36;;;;;;;6.72;3.25;;;;;;;16.41;86.16;96832.38;4983221;28;20125;-78
2022/06/17 00:39:09;;;;;;;5.35;2.97;;;;;;;16.30;86.00;96830.97;4991288;28;20045;-77
2022/06/17 00:41:38;;;;;;;6.97;3.22;;;;;;;16.39;83.47;96840.50;4985549;28;20528;-78
2022/06/17 00:44:33;;;;;;;4.75;2.83;;;;;;;16.38;81.28;96832.72;4985461;28;20128;-78
2022/06/17 00:47:04;;;;;;;7.17;3.20;;;;;;;16.26;81.62;96843.78;4983944;28;20039;-78
2022/06/17 00:49:41;;;;;;;5.53;3.07;;;;;;;16.24;82.43;96848.44;5013244;28;20041;-78
2022/06/17 00:52:18;;;;;;;5.90;2.70;;;;;;;16.18;81.57;96862.44;4986143;28;20117;-78
2022/06/17 00:54:51;;;;;;;5.03;2.57;;;;;;;16.10;82.54;96849.25;4991811;28;20058;-78
2022/06/17 00:57:40;;;;;;;3.70;2.60;;;;;;;16.08;82.05;96851.22;4988146;28;20035;-78
2022/06/17 01:00:24;;;;;;;4.70;2.58;;;;;;;16.02;82.11;96850.09;4963026;28;20129;-78
2022/06/17 01:03:00;;;;;;;5.80;2.67;;;;;;;15.98;82.83;96846.16;4967889;28;20049;-78
2022/06/17 01:05:34;;;;;;;3.87;2.30;;;;;;;15.89;83.29;96847.22;4973592;28;20030;-78
2022/06/17 01:08:15;;;;;;;6.37;2.93;;;;;;;15.78;84.08;96859.06;4976578;28;20032;-78
2022/06/17 01:10:47;;;;;;;4.80;2.70;;;;;;;15.84;85.48;96854.09;4984496;28;20054;-78
2022/06/17 01:13:14;;;;;;;6.30;2.53;;;;;;;15.88;85.25;96850.88;4987416;28;20039;-78
2022/06/17 01:15:42;;;;;;;6.17;3.07;;;;;;;15.85;84.09;96853.91;4985929;28;20027;-78
2022/06/17 01:18:11;;;;;;;4.67;2.50;;;;;;;15.78;83.62;96867.03;4968548;28;20031;-78
2022/06/17 01:20:42;;;;;;;4.17;2.37;;;;;;;15.67;85.33;96866.63;4982258;28;20021;-78
2022/06/17 01:23:13;;;;;;;5.13;2.60;;;;;;;15.68;85.10;96858.47;4977353;28;20456;-78
2022/06/17 01:25:44;;;;;;;4.00;2.60;;;;;;;15.60;84.36;96847.91;4989745;28;20085;-78
2022/06/17 01:28:13;;;;;;;5.57;2.70;;;;;;;15.62;85.55;96845.91;4990383;28;20049;-78
2022/06/17 01:30:40;;;;;;;6.30;2.43;;;;;;;15.63;85.35;96841.44;4989081;28;20077;-78
2022/06/17 01:33:13;;;;;;;4.33;2.43;;;;;;;15.58;86.09;96839.31;4990219;28;20045;-78
2022/06/17 01:35:49;;;;;;;5.57;2.58;;;;;;;15.43;87.80;96835.75;4985038;28;20039;-78
2022/06/17 01:38:15;;;;;;;5.10;2.70;;;;;;;15.33;88.23;96836.81;4987706;28;20037;-78
2022/06/17 01:40:42;;;;;;;5.43;2.60;;;;;;;15.14;90.76;96829.28;4976408;28;20022;-78
2022/06/17 01:43:11;;;;;;;3.27;2.20;;;;;;;15.07;91.48;96828.31;4977017;28;20022;-78
2022/06/17 01:45:44;;;;;;;5.67;2.93;;;;;;;15.09;91.05;96819.22;4972541;28;20535;-78
2022/06/17 01:48:12;;;;;;;4.83;3.10;;;;;;;14.99;92.01;96829.19;4983672;28;20034;-78
2022/06/17 01:50:42;;;;;;;5.73;2.97;;;;;;;15.08;91.92;96819.38;4987860;28;20554;-78
2022/06/17 01:53:16;;;;;;;4.53;2.83;;;;;;;15.01;92.84;96818.41;4987275;28;20523;-78
2022/06/17 01:55:57;;;;;;;4.37;2.90;;;;;;;14.97;92.79;96812.63;4989977;28;20034;-78
2022/06/17 01:58:35;;;;;;;4.93;2.53;;;;;;;14.87;93.36;96813.84;4981649;28;20034;-78
2022/06/17 02:01:04;;;;;;;4.93;3.00;;;;;;;14.91;92.38;96805.38;4985500;28;20403;-78
2022/06/17 02:03:34;;;;;;;5.53;2.70;;;;;;;14.85;94.11;96812.22;4980440;28;20032;-78
2022/06/17 02:06:25;;;;;;;7.87;3.47;;;;;;;14.81;94.61;96810.06;4983074;28;20042;-78
2022/06/17 02:08:52;;;;;;;6.43;2.80;;;;;;;14.79;93.60;96818.19;4980510;28;20035;-78
2022/06/17 02:11:20;;;;;;;5.53;2.63;;;;;;;14.83;92.97;96813.38;4980824;28;20030;-78
2022/06/17 02:13:51;;;;;;;4.83;2.50;;;;;;;14.84;93.03;96805.25;4979257;28;20521;-78
2022/06/17 02:16:28;;;;;;;5.20;2.63;;;;;;;14.73;94.32;96802.97;4979072;28;20084;-78
2022/06/17 02:19:05;;;;;;;4.93;2.50;;;;;;;14.68;94.47;96804.47;4981173;28;20456;-77
2022/06/17 02:21:40;;;;;;;6.57;2.90;;;;;;;14.57;93.93;96809.13;4968278;28;20026;-78
2022/06/17 02:24:07;;;;;;;6.17;2.67;;;;;;;14.60;94.14;96813.28;4969279;28;20034;-78
2022/06/17 02:26:36;;;;;;;7.97;2.60;;;;;;;14.60;94.27;96814.09;4985126;28;20039;-78
2022/06/17 02:29:05;;;;;;;4.43;2.50;;;;;;;14.38;97.93;96830.66;4981550;28;20558;-78
2022/06/17 02:31:33;;;;;;;5.90;2.23;;;;;;;14.26;100.00;96824.91;4997086;28;20069;-78
2022/06/17 02:33:59;;;;;;;4.27;2.33;;;;;;;14.27;100.00;96829.19;4998939;28;20121;-78
2022/06/17 02:36:49;;;;;;;5.30;2.87;;;;;;;14.20;100.00;96830.84;4981624;28;20472;-78
2022/06/17 02:39:15;;;;;;;6.13;3.63;;;;;;;13.80;100.00;96847.56;4971431;28;20060;-78
2022/06/17 02:41:46;;;;;;;5.60;3.50;;;;;;;13.62;100.00;96850.34;4983672;28;20500;-78
2022/06/17 02:44:38;;;;;;;6.63;4.20;;;;;;;13.63;100.00;96849.34;4968844;28;20039;-78
2022/06/17 02:47:06;;;;;;;5.47;3.57;;;;;;;13.83;100.00;96844.59;4977042;28;20037;-78
2022/06/17 02:49:35;;;;;;;5.73;3.97;;;;;;;13.68;100.00;96847.88;4982091;28;20136;-78
2022/06/17 02:52:03;;;;;;;7.30;3.87;;;;;;;13.78;100.00;96838.94;4979923;28;20047;-78
2022/06/17 02:54:44;;;;;;;8.03;4.00;;;;;;;13.89;100.00;96841.28;4981173;28;20030;-78
2022/06/17 02:57:18;;;;;;;8.00;3.70;;;;;;;13.88;100.00;96840.47;4982010;28;20030;-78
2022/06/17 02:59:51;;;;;;;6.63;3.70;;;;;;;13.81;100.00;96849.19;4989804;28;20036;-78
2022/06/17 03:02:25;;;;;;;6.60;4.00;;;;;;;13.81;100.00;96844.75;4981795;28;20038;-78
2022/06/17 03:04:58;;;;;;;4.97;3.50;;;;;;;13.63;100.00;96857.28;4980873;28;20169;-78
2022/06/17 03:07:30;;;;;;;7.30;4.30;;;;;;;13.71;100.00;96843.25;4990234;28;20030;-78
2022/06/17 03:10:15;;;;;;;10.10;4.73;;;;;;;13.60;100.00;96841.75;4984094;28;20033;-78
2022/06/17 03:12:43;;;;;;;6.77;4.00;;;;;;;13.68;100.00;96849.69;4962749;28;20072;-78
2022/06/17 03:15:11;;;;;;;5.93;4.10;;;;;;;13.63;100.00;96852.00;4986015;28;20049;-78
2022/06/17 03:17:43;;;;;;;7.93;3.78;;;;;;;13.65;100.00;96855.31;4984995;28;20034;-78
2022/06/17 03:20:23;;;;;;;6.83;4.20;;;;;;;13.59;100.00;96861.25;4954212;28;20039;-78
2022/06/17 03:22:56;;;;;;;6.70;3.90;;;;;;;13.70;100.00;96863.56;4984513;28;20117;-78
2022/06/17 03:25:29;;;;;;;6.28;4.10;;;;;;;13.62;100.00;96874.16;4972648;28;20045;-78
2022/06/17 03:28:01;;;;;;;5.47;3.80;;;;;;;13.72;100.00;96860.78;4975321;28;20117;-78
2022/06/17 03:30:33;;;;;;;6.20;4.10;;;;;;;13.70;100.00;96868.03;4974874;28;20090;-77
2022/06/17 03:33:14;;;;;;;7.40;3.70;;;;;;;13.76;100.00;96868.22;4975143;28;20377;-78
2022/06/17 03:35:43;;;;;;;7.37;3.93;;;;;;;13.67;100.00;96862.06;4969042;28;20515;-78
2022/06/17 03:38:18;;;;;;;6.77;4.13;;;;;;;13.79;100.00;96862.59;4957612;28;20039;-78
2022/06/17 03:40:49;;;;;;;8.60;3.80;;;;;;;13.74;100.00;96864.06;4980929;28;20028;-78
2022/06/17 03:43:15;;;;;;;7.70;4.17;;;;;;;13.63;100.00;96862.56;4983487;28;20034;-78
2022/06/17 03:45:52;;;;;;;5.23;3.43;;;;;;;13.69;100.00;96872.50;4979557;28;20368;-78
2022/06/17 03:48:30;;;;;;;5.83;4.10;;;;;;;13.75;100.00;96877.13;4979054;28;20042;-78
2022/06/17 03:50:56;;;;;;;7.93;4.33;;;;;;;13.56;100.00;96877.44;4980052;28;20081;-78
2022/06/17 03:53:27;;;;;;;5.90;4.00;;;;;;;13.56;100.00;96885.34;4965095;28;20042;-78
2022/06/17 03:56:02;;;;;;;8.53;3.80;;;;;;;13.49;100.00;96890.47;4974337;28;20061;-78
2022/06/17 03:58:32;;;;;;;6.30;4.30;;;;;;;13.61;100.00;96893.59;4984692;28;20121;-79
2022/06/17 04:01:14;;;;;;;6.27;4.20;;;;;;;13.46;100.00;96897.88;4978075;28;20030;-78
2022/06/17 04:03:49;;;;;;;6.25;4.53;;;;;;;13.44;100.00;96890.09;4981720;28;20105;-78
2022/06/17 04:06:23;;;;;;;6.57;4.33;;;;;;;13.70;100.00;96890.00;4965631;28;20521;-78
2022/06/17 04:08:57;;;;;;;7.50;3.83;;;;;;;13.77;100.00;96890.19;4979958;28;20726;-78
2022/06/17 04:11:38;;;;;;;6.23;4.20;;;;;;;13.79;100.00;96894.31;4981494;28;20058;-78
2022/06/17 04:14:41;;;;;;;7.70;4.70;;;;;;;13.87;100.00;96890.84;4982137;28;20096;-78
2022/06/17 04:17:32;;;;;;;7.13;4.50;;;;;;;14.06;100.00;96903.75;4966399;28;20046;-78
2022/06/17 04:20:33;;;;;;;11.23;6.07;;;;;;;14.14;100.00;96897.66;4982584;28;20129;-78
2022/06/17 04:23:10;;;;;;;12.10;8.00;;;;;;;14.23;100.00;96907.25;4977698;28;20094;-78
2022/06/17 04:26:23;;;;;;;6.80;4.60;;;;;;;14.41;100.00;96903.59;4981954;28;20064;-78
2022/06/17 04:29:02;;;;;;;9.13;5.40;;;;;;;14.42;100.00;96902.59;4980089;28;20043;-77
2022/06/17 04:31:32;;;;;;;6.73;4.43;;;;;;;14.50;100.00;96902.59;4981520;28;20032;-77
2022/06/17 04:34:15;;;;;;;;;;;;;;;14.60;100.00;96906.75;4982301;28;20038;-78
2022/06/17 04:36:51;;;;;;;10.70;6.67;;;;;;;14.79;100.00;96913.50;4961926;28;19972;-77
2022/06/17 04:39:28;;;;;;;;;;;;;;;14.83;100.00;96914.81;4984916;28;20061;-78
2022/06/17 04:42:32;;;;;;;7.53;4.70;;;;;;;14.89;100.00;96917.75;5004292;28;19918;-78
2022/06/17 04:44:59;;;;;;;5.87;3.60;;;;;;;14.53;100.00;96926.13;4991499;28;20033;-78
2022/06/17 04:47:25;;;;;;;7.57;4.33;;;;;;;14.72;100.00;96925.78;4987379;28;20038;-78
2022/06/17 04:49:56;;;;;;;6.40;4.27;;;;;;;14.87;100.00;96922.41;4984690;28;20045;-77
2022/06/17 04:52:32;;;;;;;6.53;3.60;;;;;;;14.96;100.00;96929.38;4983421;28;20030;-78
2022/06/17 04:55:28;;;;;;;6.43;3.97;;;;;;;14.90;100.00;96925.56;4980838;28;20042;-78
2022/06/17 04:58:24;;;;;;;6.73;4.33;;;;;;;15.08;100.00;96925.34;4988658;28;20038;-78
2022/06/17 05:00:58;;;;;;;10.60;7.73;;;;;;;15.15;100.00;96923.66;4983166;28;20034;-78
2022/06/17 05:03:44;;;;;;;10.40;7.23;;;;;;;15.21;100.00;96930.91;4990985;28;20038;-78
2022/06/17 05:06:24;;;;;;;6.70;3.80;;;;;;;15.31;100.00;96928.88;4971295;28;20085;-78
2022/06/17 05:09:00;;;;;;;5.57;3.37;;;;;;;15.19;100.00;96929.44;4966896;28;20022;-77
2022/06/17 05:11:33;;;;;;;6.73;3.53;;;;;;;15.39;100.00;96935.16;4965681;28;20157;-78
2022/06/17 05:14:14;;;;;;;6.00;3.10;;;;;;;15.48;100.00;96934.13;4987008;28;20045;-77
2022/06/17 05:16:40;;;;;;;6.80;3.60;;;;;;;15.49;100.00;96941.06;4971134;28;20069;-77
2022/06/17 05:19:05;;;;;;;4.50;3.07;;;;;;;15.67;100.00;96938.22;4976511;28;20073;-77
2022/06/17 05:21:32;;;;;;;6.57;2.97;;;;;;;15.91;99.33;96934.59;4965217;28;20064;-78
2022/06/17 05:24:04;;;;;;;6.63;3.67;;;;;;;16.01;98.65;96946.63;4976230;28;20086;-78
2022/06/17 05:26:30;;;;;;;6.40;2.77;;;;;;;16.10;98.35;96949.25;4984826;28;20038;-78
2022/06/17 05:28:57;;;;;;;8.43;2.63;;;;;;;16.40;97.66;96948.34;4983847;28;20165;-77
2022/06/17 05:31:27;;;;;;;4.57;3.23;;;;;;;16.60;94.63;96950.50;4982418;28;20185;-78
2022/06/17 05:34:00;;;;;;;4.50;2.70;;;;;;;16.85;96.18;96951.13;4982065;28;20125;-77
2022/06/17 05:36:26;;;;;;;4.97;3.10;;;;;;;16.88;95.49;96953.44;4987441;28;20078;-78
2022/06/17 05:38:53;;;;;;;5.87;3.40;;;;;;;17.02;92.14;96949.97;4983775;28;20117;-78
2022/06/17 05:41:22;;;;;;;5.87;3.13;;;;;;;17.06;92.74;96951.25;4981707;28;20078;-78
2022/06/17 05:43:49;;;;;;;5.67;3.37;;;;;;;16.85;92.39;96964.41;4975122;28;20034;-78
2022/06/17 05:46:43;;;;;;;6.23;3.50;;;;;;;16.92;90.53;96957.38;4975635;28;20050;-78
2022/06/17 05:49:34;;;;;;;;;;;;;;;17.38;90.03;96959.88;4987930;28;20040;-78
2022/06/17 05:52:26;;;;;;;4.65;3.08;;;;;;;17.38;91.08;96960.69;4983717;28;19913;-79
2022/06/17 05:55:04;;;;;;;5.78;3.47;;;;;;;17.50;90.45;96963.69;4983788;28;20091;-79
2022/06/17 05:57:30;;;;;;;5.10;3.10;;;;;;;17.40;95.09;96971.13;4975499;28;20091;-78
2022/06/17 05:59:56;;;;;;;6.38;3.42;;;;;;;17.47;92.26;96966.75;4980800;28;20165;-78
2022/06/17 06:02:22;;;;;;;8.05;4.53;;;;;;;17.86;84.29;96968.28;4986145;28;20121;-78
2022/06/17 06:05:00;;;;;;;7.72;3.72;;;;;;;17.85;83.77;96971.97;4970778;28;20030;-78
2022/06/17 06:07:28;;;;;;;6.60;3.47;;;;;;;18.38;82.12;96968.03;4986842;28;20037;-78
2022/06/17 06:09:55;;;;;;;7.88;3.22;;;;;;;18.42;78.30;96970.31;4985227;28;20076;-78
2022/06/17 06:12:21;;;;;;;6.03;3.20;;;;;;;18.29;77.23;96966.50;4984185;28;20046;-78
2022/06/17 06:14:48;;;;;;;6.75;3.70;;;;;;;18.53;76.21;96975.13;4980718;28;20064;-78
2022/06/17 06:17:16;;;;;;;5.47;3.55;;;;;;;18.94;75.38;96967.28;4978391;28;20041;-79
2022/06/17 06:19:44;;;;;;;6.28;3.65;;;;;;;19.19;76.24;96964.19;4980155;28;20042;-78
2022/06/17 06:22:09;;;;;;;5.13;2.80;;;;;;;19.80;67.49;96961.66;4979301;28;20567;-79
2022/06/17 06:24:36;;;;;;;8.20;2.83;;;;;;;20.39;66.63;96962.84;4967440;28;20033;-78
2022/06/17 06:27:02;;;;;;;6.63;2.92;;;;;;;20.52;66.00;96964.72;4982209;28;20037;-78
2022/06/17 06:29:39;;;;;;;6.65;3.00;;;;;;;19.80;64.21;96972.31;4990020;28;20798;-78
2022/06/17 06:32:05;;;;;;;7.30;3.53;;;;;;;20.17;63.88;96973.66;4989052;28;20033;-79
2022/06/17 06:34:44;;;;;;;7.90;3.00;;;;;;;20.46;61.94;96972.50;4983982;28;20034;-78
2022/06/17 06:37:13;;;;;;;7.47;3.35;;;;;;;21.36;58.22;96962.25;4982891;28;20043;-79
2022/06/17 06:39:39;;;;;;;5.80;2.90;;;;;;;20.63;58.74;96980.16;4982800;28;20045;-78
2022/06/17 06:42:06;;;;;;;5.85;3.05;;;;;;;20.34;59.47;96983.97;4984345;28;20053;-79
2022/06/17 06:44:34;;;;;;;5.32;2.78;;;;;;;21.54;57.35;96976.81;4986038;28;20033;-79
2022/06/17 06:47:03;;;;;;;5.15;3.42;;;;;;;21.87;58.54;96974.84;4983752;28;20061;-79
2022/06/17 06:49:52;;;;;;;5.45;2.85;;;;;;;21.56;56.86;96977.41;4974659;28;20556;-78
2022/06/17 06:52:18;;;;;;;7.47;3.10;;;;;;;21.85;56.54;96970.72;4988988;28;20038;-79
2022/06/17 06:54:44;;;;;;;5.43;3.17;;;;;;;21.62;57.67;96980.06;4989051;28;20022;-78
2022/06/17 06:57:11;;;;;;;5.35;2.72;;;;;;;22.29;55.14;96977.13;4988815;28;20511;-78
2022/06/17 06:59:40;;;;;;;7.40;3.47;;;;;;;22.51;54.74;96964.22;4986393;28;20026;-79
2022/06/17 07:02:06;;;;;;;7.15;3.17;;;;;;;22.51;55.05;96966.91;4985934;28;20034;-79
2022/06/17 07:04:32;;;;;;;7.47;3.00;;;;;;;22.61;53.39;96969.91;4982404;28;20038;-79
2022/06/17 07:06:57;;;;;;;4.97;3.20;;;;;;;22.36;52.84;96977.91;4962554;28;20027;-78
2022/06/17 07:09:25;;;;;;;6.18;3.15;;;;;;;22.43;51.65;96967.97;4991506;28;20457;-79
2022/06/17 07:11:51;;;;;;;5.25;2.80;;;;;;;22.87;52.37;96968.06;4983896;28;20026;-78
2022/06/17 07:14:16;;;;;;;4.63;2.45;;;;;;;23.16;50.24;96964.72;4980965;28;20061;-79
2022/06/17 07:16:42;;;;;;;6.70;3.70;;;;;;;23.74;48.96;96967.06;4969620;28;20023;-78
2022/06/17 07:19:10;;;;;;;5.40;3.05;;;;;;;24.02;47.46;96970.22;4969801;28;20031;-79
2022/06/17 07:21:36;;;;;;;23.02;3.92;;;;;;;23.50;48.27;96978.63;4986428;28;20057;-79
2022/06/17 07:24:02;;;;;;;6.05;3.28;;;;;;;24.02;46.87;96968.34;4989023;28;20117;-79
2022/06/17 07:26:28;;;;;;;7.97;2.50;;;;;;;24.27;47.36;96973.59;4980548;28;20025;-78
2022/06/17 07:28:54;;;;;;;4.93;2.80;;;;;;;23.99;48.69;96983.06;4984986;28;20039;-79
2022/06/17 07:31:22;;;;;;;6.35;3.55;;;;;;;24.02;47.33;96981.78;4979139;28;20038;-79
2022/06/17 07:33:48;;;;;;;8.52;3.55;;;;;;;23.99;46.47;96987.63;4982218;28;20022;-79
2022/06/17 07:41:50;;;;;;;4.95;2.63;;;;;;;24.93;45.23;96982.56;4984883;28;20059;-79
2022/06/17 07:44:17;;;;;;;7.05;2.80;;;;;;;25.33;43.13;96984.63;4985098;28;20110;-79
2022/06/17 07:46:43;;;;;;;6.80;2.40;;;;;;;25.32;42.15;96974.91;4990903;28;20034;-80
2022/06/17 07:49:10;;;;;;;6.32;2.60;;;;;;;25.27;42.91;96986.34;4982789;28;20038;-79
2022/06/17 07:51:35;;;;;;;6.75;2.67;;;;;;;26.21;40.06;96983.50;4986813;28;20058;-79
2022/06/17 07:54:01;;;;;;;6.40;2.40;;;;;;;25.99;40.77;96982.53;4994086;28;20038;-80
2022/06/17 07:56:27;;;;;;;6.03;2.42;;;;;;;26.23;40.03;96980.59;4994865;28;20058;-78
2022/06/17 07:58:53;;;;;;;7.82;5.07;;;;;;;25.22;41.25;96988.09;4992021;28;20034;-80
2022/06/17 08:01:18;;;;;;;6.68;2.60;;;;;;;25.89;40.19;96976.94;4984728;28;20031;-79
2022/06/17 08:03:44;;;;;;;5.40;2.35;;;;;;;25.60;39.50;96985.75;4987814;28;20037;-82
2022/06/17 08:06:13;;;;;;;3.92;2.00;;;;;;;25.95;38.34;96984.88;4988152;28;20217;-80
2022/06/17 08:08:40;;;;;;;4.18;2.10;;;;;;;26.90;38.18;96983.44;4990718;28;20052;-79
2022/06/17 08:11:07;;;;;;;3.83;2.20;;;;;;;25.96;38.67;96989.22;4996198;28;20057;-80
2022/06/17 08:13:33;;;;;;;4.82;2.28;;;;;;;26.79;36.80;96984.31;4990549;28;20093;-80
2022/06/17 08:16:03;;;;;;;8.30;4.30;;;;;;;26.75;37.81;96983.97;4984487;28;20034;-80
2022/06/17 08:18:29;;;;;;;10.18;5.15;;;;;;;27.45;35.05;96992.66;5003709;28;20117;-80
2022/06/17 08:20:55;;;;;;;4.65;2.00;;;;;;;26.85;35.93;96991.44;4996972;28;20065;-80
2022/06/17 08:23:22;;;;;;;6.82;2.42;;;;;;;26.29;37.59;96987.69;4970281;28;20138;-80
2022/06/17 08:25:49;;;;;;;4.88;2.45;;;;;;;28.64;34.53;96978.47;4989619;28;20073;-80
2022/06/17 08:28:16;;;;;;;5.40;3.80;;;;;;;28.50;35.80;96984.53;4993421;28;20033;-80
2022/06/17 08:30:45;;;;;;;5.55;2.75;;;;;;;28.25;35.20;96985.88;4970475;28;20034;-80
2022/06/17 08:33:11;;;;;;;7.50;2.60;;;;;;;28.02;35.51;96991.56;4990035;28;20049;-80
2022/06/17 08:35:40;;;;;;;7.57;2.47;;;;;;;27.78;36.87;96991.78;4992841;28;20052;-80
2022/06/17 08:38:18;;;;;;;6.20;2.60;;;;;;;28.61;34.00;96986.28;5005083;28;20101;-81
2022/06/17 08:40:53;;;;;;;5.20;2.38;;;;;;;28.66;35.36;96986.31;4995684;28;20102;-82
2022/06/17 08:43:19;;;;;;;4.55;2.25;;;;;;;28.55;35.52;96985.41;4998190;28;20030;-80
2022/06/17 08:46:13;;;;;;;4.28;2.70;;;;;;;28.00;37.10;96996.38;4999940;28;20037;-80
2022/06/17 08:49:05;;;;;;;5.63;2.20;;;;;;;27.74;35.74;96996.84;5031383;28;20057;-82
2022/06/17 08:51:57;;;;;;;7.38;2.85;;;;;;;28.60;35.52;96992.75;5000341;28;20053;-81
2022/06/17 08:54:44;;;;;;;6.07;2.50;;;;;;;28.80;34.31;96997.53;4976166;28;20042;-82
2022/06/17 08:57:46;;;;;;;6.78;4.00;;;;;;;29.00;33.88;96991.50;4994397;28;20110;-80
2022/06/17 09:00:18;;;;;;;7.28;2.33;;;;;;;28.91;33.25;96988.44;5003572;28;20038;-79
2022/06/17 09:03:18;;;;;;;7.38;2.40;;;;;;;29.04;33.01;96992.63;4990506;28;20104;-79
2022/06/17 09:05:51;;;;;;;4.43;2.05;;;;;;;28.52;34.74;96990.50;5000564;28;20045;-81
2022/06/17 09:08:41;;;;;;;7.32;2.20;;;;;;;29.47;33.50;96997.00;5006067;28;20045;-82
2022/06/17 09:11:17;;;;;;;4.20;1.75;;;;;;;29.27;33.01;96984.13;4968543;28;20562;-82
2022/06/17 09:14:13;;;;;;;4.40;2.28;;;;;;;30.16;31.14;96987.88;4992228;28;20041;-83
2022/06/17 09:17:00;;;;;;;7.07;3.45;;;;;;;29.06;32.82;96985.88;4987946;28;20030;-83
2022/06/17 09:19:31;;;;;;;9.20;2.80;;;;;;;30.24;30.16;96975.72;5000016;28;20034;-81
2022/06/17 09:22:18;;;;;;;4.38;2.20;;;;;;;29.87;31.05;96983.97;5005535;28;20114;-84
2022/06/17 09:24:45;;;;;;;7.32;2.15;;;;;;;29.50;30.66;96990.25;4990794;28;20336;-82
2022/06/17 09:27:16;;;;;;;3.17;1.80;;;;;;;29.88;30.41;96991.84;4986832;28;20062;-81
2022/06/17 09:29:48;;;;;;;3.78;1.85;;;;;;;30.23;30.61;96991.19;4981188;28;20038;-83
2022/06/17 09:32:37;;;;;;;6.32;2.40;;;;;;;29.80;31.92;96992.34;4992874;28;20031;-83
2022/06/17 09:35:14;;;;;;;3.13;1.83;;;;;;;30.34;30.73;96988.50;4989872;28;20116;-83
2022/06/17 09:37:53;;;;;;;5.13;1.90;;;;;;;30.36;31.41;96995.31;4994131;28;20034;-84
2022/06/17 09:40:27;;;;;;;3.53;2.00;;;;;;;30.12;31.58;96991.41;4984907;28;20049;-84
2022/06/17 09:43:02;;;;;;;5.63;2.22;;;;;;;30.21;30.27;96985.19;5008341;28;20427;-81
2022/06/17 09:45:34;;;;;;;3.75;2.03;;;;;;;30.96;30.68;96990.25;5020246;28;20042;-82
2022/06/17 09:48:10;;;;;;;6.10;2.15;;;;;;;31.29;29.49;96982.63;4993649;28;20204;-82
2022/06/17 09:50:45;;;;;;;5.07;1.95;;;;;;;30.05;30.48;96988.94;4981510;28;20042;-83
2022/06/17 09:53:23;;;;;;;3.95;2.20;;;;;;;30.12;30.54;96991.41;4983900;28;20070;-82
2022/06/17 09:56:02;;;;;;;2.47;1.88;;;;;;;29.40;30.99;96987.47;4984215;28;20034;-82
2022/06/17 09:58:39;;;;;;;4.00;2.05;;;;;;;29.15;31.29;96983.53;4990034;28;20094;-82
2022/06/17 10:01:07;;;;;;;5.20;2.17;;;;;;;30.60;29.68;96990.19;4984447;28;20416;-82
2022/06/17 10:03:36;;;;;;;3.72;1.52;;;;;;;31.48;29.05;96997.28;4981701;28;20495;-82
2022/06/17 10:06:21;;;;;;;4.30;1.88;;;;;;;31.13;28.61;96998.94;4974824;28;20038;-82
2022/06/17 10:09:08;;;;;;;2.92;1.80;;;;;;;32.16;27.02;96994.13;5000424;28;20038;-82
2022/06/17 10:12:01;;;;;;;5.78;1.90;;;;;;;31.16;27.14;97001.13;5001346;28;20508;-83
2022/06/17 10:14:45;;;;;;;3.45;1.90;;;;;;;32.27;25.84;96992.19;4985372;28;20070;-83
2022/06/17 10:20:18;;;;;;;9.88;5.50;;;;;;;32.33;26.41;96983.69;5017803;28;20038;-82
2022/06/17 10:23:05;;;;;;;4.60;2.28;;;;;;;31.70;26.78;96984.19;5000600;28;20077;-82
2022/06/17 10:26:03;;;;;;;5.30;1.60;;;;;;;31.39;27.23;96979.94;4984360;28;20042;-82
2022/06/17 10:28:46;;;;;;;3.50;1.90;;;;;;;30.81;28.12;96976.66;5001118;28;20475;-82
2022/06/17 10:31:46;;;;;;;5.28;2.05;;;;;;;31.52;27.98;96973.91;5000780;28;20031;-82
2022/06/17 10:34:21;;;;;;;3.97;1.88;;;;;;;32.99;25.98;96955.22;4984173;28;20038;-82
2022/06/17 10:36:47;;;;;;;4.05;1.90;;;;;;;32.86;25.81;96964.03;5002114;28;20439;-81
2022/06/17 10:39:16;;;;;;;3.40;2.10;;;;;;;31.91;27.96;96968.66;5004164;28;20068;-82
2022/06/17 10:41:42;;;;;;;4.85;1.80;;;;;;;32.55;27.76;96958.00;5003197;28;20053;-82
2022/06/17 10:44:11;;;;;;;3.35;1.80;;;;;;;32.37;26.58;96964.91;5000211;28;20520;-83
2022/06/17 10:46:40;;;;;;;2.67;1.65;;;;;;;32.64;26.41;96959.03;5000275;28;20042;-81
2022/06/17 10:49:32;;;;;;;3.85;1.88;;;;;;;33.11;25.04;96956.78;5000279;28;20041;-81
2022/06/17 10:51:59;;;;;;;3.83;2.15;;;;;;;32.34;26.00;96960.00;4983117;28;20129;-83
2022/06/17 10:54:29;;;;;;;4.47;2.10;;;;;;;31.57;26.41;96962.22;4984721;28;20074;-83
2022/06/17 10:57:05;;;;;;;4.43;1.95;;;;;;;33.32;24.91;96955.47;4999565;28;20083;-83
2022/06/17 10:59:43;;;;;;;4.03;1.75;;;;;;;31.46;28.50;96966.88;4983480;28;20563;-83
2022/06/17 11:02:31;;;;;;;4.30;2.35;;;;;;;31.39;27.68;96969.06;4998965;28;20049;-82
2022/06/17 11:05:02;;;;;;;4.18;2.00;;;;;;;30.75;28.46;96963.06;4971493;28;20830;-82
2022/06/17 11:07:35;;;;;;;3.83;2.10;;;;;;;30.57;28.75;96965.47;4998547;28;20106;-82
2022/06/17 11:10:13;;;;;;;3.95;1.90;;;;;;;31.63;29.68;96967.38;4983036;28;20033;-82
2022/06/17 11:12:43;;;;;;;4.00;1.83;;;;;;;32.26;26.42;96971.47;4984082;28;20081;-82
2022/06/17 11:15:31;;;;;;;3.80;1.70;;;;;;;32.11;25.97;96962.31;4984398;28;20042;-83
2022/06/17 11:18:13;;;;;;;3.42;1.67;;;;;;;31.15;28.31;96964.16;5005612;28;20038;-83
2022/06/17 11:20:39;;;;;;;3.13;1.50;;;;;;;29.71;28.82;96970.34;4991544;28;20030;-82
2022/06/17 11:23:21;;;;;;;4.88;1.70;;;;;;;31.35;27.40;96970.69;4990849;28;20042;-82
2022/06/17 11:25:47;;;;;;;6.95;4.18;;;;;;;33.04;25.42;96963.38;5006401;28;20034;-82
2022/06/17 11:28:36;;;;;;;2.65;1.50;;;;;;;31.59;27.67;96969.00;4987779;28;20057;-82
2022/06/17 11:31:21;;;;;;;2.97;1.50;;;;;;;31.94;27.03;96972.72;4991662;28;20030;-82
2022/06/17 11:33:53;;;;;;;3.25;1.80;;;;;;;33.49;24.74;96974.97;5006686;28;20045;-82
2022/06/17 11:36:33;;;;;;;2.58;1.30;;;;;;;32.65;25.41;96959.84;5006941;28;20045;-82
2022/06/17 11:39:33;;;;;;;2.75;1.38;;;;;;;31.90;24.99;96963.50;4989976;28;20034;-81
2022/06/17 11:42:14;;;;;;;2.60;1.65;;;;;;;32.14;24.54;96955.50;4988827;28;20034;-81
2022/06/17 11:44:59;;;;;;;4.45;1.83;;;;;;;30.51;26.36;96962.75;4995353;28;20035;-80
2022/06/17 11:47:29;;;;;;;5.18;1.90;;;;;;;32.58;25.43;96955.53;5007981;28;20068;-82
2022/06/17 11:49:58;;;;;;;4.38;1.67;;;;;;;31.72;25.78;96955.91;4997654;28;20031;-82
2022/06/17 11:52:35;;;;;;;4.07;1.85;;;;;;;31.39;25.84;96956.28;5008499;28;20132;-82
2022/06/17 11:55:02;;;;;;;4.25;1.60;;;;;;;32.57;25.69;96948.47;5026354;28;20099;-83
2022/06/17 11:57:34;;;;;;;6.18;1.95;;;;;;;32.27;24.20;96948.63;5015062;28;20046;-80
2022/06/17 12:00:04;;;;;;;;;;;;;;;32.75;24.38;96948.88;5006603;28;20034;-82
2022/06/17 12:03:02;;;;;;;5.18;1.38;;;;;;;33.16;22.75;96937.66;5004891;28;19924;-81
2022/06/17 12:05:33;;;;;;;2.85;1.70;;;;;;;33.20;24.13;96934.06;4988205;28;20041;-83
2022/06/17 12:08:25;;;;;;;3.50;1.50;;;;;;;32.48;23.31;96933.00;5004024;28;20117;-82
2022/06/17 12:10:55;;;;;;;3.75;1.75;;;;;;;33.24;23.35;96935.13;5004018;28;20065;-81
2022/06/17 12:13:38;;;;;;;2.08;1.33;;;;;;;32.82;24.87;96941.19;4998828;28;20039;-81